sensor_id;sensor_type;location;lat;lon;timestamp;pressure;altitude;pressure_sealevel;temperature;humidity
16355;BME280;8287;51.644;8.494;2023-06-14T00:00:50;100305.66;;;19.27;45.32
16355;BME280;8287;51.644;8.494;2023-06-14T00:03:18;100306.53;;;19.34;45.34
16355;BME280;8287;51.644;8.494;2023-06-14T00:05:47;100313.31;;;19.25;45.38
16355;BME280;8287;51.644;8.494;2023-06-14T00:08:14;100318.97;;;19.20;44.99
16355;BME280;8287;51.644;8.494;2023-06-14T00:10:41;100305.38;;;19.35;44.63
16355;BME280;8287;51.644;8.494;2023-06-14T00:13:09;100308.50;;;19.37;44.66
16355;BME280;8287;51.644;8.494;2023-06-14T00:15:36;100313.94;;;19.44;44.73
16355;BME280;8287;51.644;8.494;2023-06-14T00:18:03;100314.44;;;19.24;45.43
16355;BME280;8287;51.644;8.494;2023-06-14T00:20:32;100311.19;;;19.15;45.27
16355;BME280;8287;51.644;8.494;2023-06-14T00:22:59;100320.53;;;19.21;45.32
16355;BME280;8287;51.644;8.494;2023-06-14T00:25:26;100322.19;;;19.29;45.41
16355;BME280;8287;51.644;8.494;2023-06-14T00:27:53;100317.94;;;19.28;45.22
16355;BME280;8287;51.644;8.494;2023-06-14T00:30:21;100317.59;;;19.29;45.40
16355;BME280;8287;51.644;8.494;2023-06-14T00:32:48;100316.75;;;19.25;45.53
16355;BME280;8287;51.644;8.494;2023-06-14T00:35:15;100326.91;;;19.13;45.47
16355;BME280;8287;51.644;8.494;2023-06-14T00:37:41;100324.63;;;19.15;45.52
16355;BME280;8287;51.644;8.494;2023-06-14T00:40:08;100328.19;;;19.19;45.20
16355;BME280;8287;51.644;8.494;2023-06-14T00:42:35;100323.22;;;19.21;46.36
16355;BME280;8287;51.644;8.494;2023-06-14T00:45:02;100320.53;;;19.21;46.17
16355;BME280;8287;51.644;8.494;2023-06-14T00:47:30;100327.81;;;19.20;46.80
16355;BME280;8287;51.644;8.494;2023-06-14T00:49:57;100330.31;;;19.10;46.28
16355;BME280;8287;51.644;8.494;2023-06-14T00:52:23;100329.13;;;19.07;47.15
16355;BME280;8287;51.644;8.494;2023-06-14T00:54:50;100330.25;;;19.06;46.55
16355;BME280;8287;51.644;8.494;2023-06-14T00:57:17;100334.06;;;19.05;46.97
16355;BME280;8287;51.644;8.494;2023-06-14T00:59:46;100341.00;;;19.06;46.79
16355;BME280;8287;51.644;8.494;2023-06-14T01:02:13;100350.84;;;18.99;47.13
16355;BME280;8287;51.644;8.494;2023-06-14T01:04:43;100345.38;;;18.92;47.27
16355;BME280;8287;51.644;8.494;2023-06-14T01:07:20;100343.22;;;18.78;47.67
16355;BME280;8287;51.644;8.494;2023-06-14T01:09:58;100337.06;;;18.78;47.08
16355;BME280;8287;51.644;8.494;2023-06-14T01:12:33;100345.53;;;18.80;47.05
16355;BME280;8287;51.644;8.494;2023-06-14T01:15:03;100348.69;;;18.63;47.33
16355;BME280;8287;51.644;8.494;2023-06-14T01:17:30;100349.41;;;18.60;47.66
16355;BME280;8287;51.644;8.494;2023-06-14T01:20:01;100349.69;;;18.55;47.54
16355;BME280;8287;51.644;8.494;2023-06-14T01:22:29;100351.22;;;18.56;47.30
16355;BME280;8287;51.644;8.494;2023-06-14T01:24:58;100346.59;;;18.53;47.71
16355;BME280;8287;51.644;8.494;2023-06-14T01:27:25;100359.72;;;18.39;48.14
16355;BME280;8287;51.644;8.494;2023-06-14T01:29:54;100356.63;;;18.37;47.84
16355;BME280;8287;51.644;8.494;2023-06-14T01:32:23;100353.38;;;18.47;48.10
16355;BME280;8287;51.644;8.494;2023-06-14T01:34:50;100352.44;;;18.58;47.65
16355;BME280;8287;51.644;8.494;2023-06-14T01:37:17;100356.88;;;18.70;47.71
16355;BME280;8287;51.644;8.494;2023-06-14T01:39:45;100353.28;;;18.62;47.63
16355;BME280;8287;51.644;8.494;2023-06-14T01:42:13;100355.44;;;18.53;48.06
16355;BME280;8287;51.644;8.494;2023-06-14T01:44:41;100350.69;;;18.47;48.30
16355;BME280;8287;51.644;8.494;2023-06-14T01:47:09;100353.75;;;18.45;48.42
16355;BME280;8287;51.644;8.494;2023-06-14T01:49:35;100349.19;;;18.49;48.06
16355;BME280;8287;51.644;8.494;2023-06-14T01:52:02;100350.75;;;18.50;48.45
16355;BME280;8287;51.644;8.494;2023-06-14T01:54:29;100353.03;;;18.48;48.95
16355;BME280;8287;51.644;8.494;2023-06-14T01:56:56;100354.03;;;18.40;48.29
16355;BME280;8287;51.644;8.494;2023-06-14T01:59:24;100359.84;;;18.27;48.91
16355;BME280;8287;51.644;8.494;2023-06-14T02:01:51;100349.41;;;18.03;49.56
16355;BME280;8287;51.644;8.494;2023-06-14T02:04:17;100358.16;;;18.00;49.43
16355;BME280;8287;51.644;8.494;2023-06-14T02:06:44;100362.75;;;17.99;49.61
16355;BME280;8287;51.644;8.494;2023-06-14T02:09:10;100363.59;;;18.03;49.60
16355;BME280;8287;51.644;8.494;2023-06-14T02:11:37;100369.78;;;17.88;50.22
16355;BME280;8287;51.644;8.494;2023-06-14T02:14:03;100364.84;;;17.90;50.45
16355;BME280;8287;51.644;8.494;2023-06-14T02:16:33;100367.81;;;17.85;50.46
16355;BME280;8287;51.644;8.494;2023-06-14T02:19:01;100353.50;;;17.97;49.96
16355;BME280;8287;51.644;8.494;2023-06-14T02:21:27;100358.16;;;18.00;50.08
16355;BME280;8287;51.644;8.494;2023-06-14T02:23:54;100354.84;;;18.06;49.94
16355;BME280;8287;51.644;8.494;2023-06-14T02:26:21;100365.84;;;18.01;50.22
16355;BME280;8287;51.644;8.494;2023-06-14T02:28:48;100363.53;;;18.00;49.96
16355;BME280;8287;51.644;8.494;2023-06-14T02:31:15;100356.63;;;17.99;49.88
16355;BME280;8287;51.644;8.494;2023-06-14T02:33:43;100367.81;;;17.85;50.48
16355;BME280;8287;51.644;8.494;2023-06-14T02:36:09;100359.13;;;17.73;50.86
16355;BME280;8287;51.644;8.494;2023-06-14T02:38:36;100365.97;;;17.55;51.80
16355;BME280;8287;51.644;8.494;2023-06-14T02:41:03;100368.56;;;17.51;51.42
16355;BME280;8287;51.644;8.494;2023-06-14T02:43:29;100360.38;;;17.60;51.29
16355;BME280;8287;51.644;8.494;2023-06-14T02:45:56;100366.38;;;17.72;51.86
16355;BME280;8287;51.644;8.494;2023-06-14T02:48:22;100358.44;;;17.76;51.57
16355;BME280;8287;51.644;8.494;2023-06-14T02:50:50;100351.94;;;17.77;51.19
16355;BME280;8287;51.644;8.494;2023-06-14T02:53:17;100361.72;;;17.69;52.23
16355;BME280;8287;51.644;8.494;2023-06-14T02:55:43;100356.28;;;17.66;52.17
16355;BME280;8287;51.644;8.494;2023-06-14T02:58:12;100364.09;;;17.55;52.06
16355;BME280;8287;51.644;8.494;2023-06-14T03:00:38;100366.72;;;17.36;52.97
16355;BME280;8287;51.644;8.494;2023-06-14T03:03:06;100369.44;;;17.24;53.12
16355;BME280;8287;51.644;8.494;2023-06-14T03:05:38;100364.72;;;17.18;53.02
16355;BME280;8287;51.644;8.494;2023-06-14T03:08:07;100369.97;;;17.14;53.25
16355;BME280;8287;51.644;8.494;2023-06-14T03:10:34;100374.41;;;17.07;53.56
16355;BME280;8287;51.644;8.494;2023-06-14T03:13:01;100382.50;;;17.10;53.85
16355;BME280;8287;51.644;8.494;2023-06-14T03:15:27;100380.34;;;17.16;53.05
16355;BME280;8287;51.644;8.494;2023-06-14T03:17:54;100370.69;;;17.11;53.83
16355;BME280;8287;51.644;8.494;2023-06-14T03:20:21;100374.72;;;17.05;53.71
16355;BME280;8287;51.644;8.494;2023-06-14T03:22:49;100376.56;;;17.01;53.64
16355;BME280;8287;51.644;8.494;2023-06-14T03:25:17;100375.16;;;16.92;54.25
16355;BME280;8287;51.644;8.494;2023-06-14T03:27:44;100383.19;;;16.77;54.74
16355;BME280;8287;51.644;8.494;2023-06-14T03:30:11;100390.50;;;16.64;54.86
16355;BME280;8287;51.644;8.494;2023-06-14T03:32:37;100386.94;;;16.60;56.01
16355;BME280;8287;51.644;8.494;2023-06-14T03:35:05;100394.72;;;16.65;55.79
16355;BME280;8287;51.644;8.494;2023-06-14T03:37:32;100401.53;;;16.63;56.25
16355;BME280;8287;51.644;8.494;2023-06-14T03:39:59;100397.13;;;16.70;55.88
16355;BME280;8287;51.644;8.494;2023-06-14T03:42:27;100397.31;;;16.77;55.45
16355;BME280;8287;51.644;8.494;2023-06-14T03:44:54;100403.19;;;16.67;55.76
16355;BME280;8287;51.644;8.494;2023-06-14T03:47:20;100396.69;;;16.68;55.46
16355;BME280;8287;51.644;8.494;2023-06-14T03:49:47;100404.50;;;16.73;56.37
16355;BME280;8287;51.644;8.494;2023-06-14T03:52:13;100410.59;;;16.58;56.84
16355;BME280;8287;51.644;8.494;2023-06-14T03:54:41;100421.47;;;16.65;56.67
16355;BME280;8287;51.644;8.494;2023-06-14T03:57:09;100422.09;;;16.74;55.97
16355;BME280;8287;51.644;8.494;2023-06-14T03:59:37;100418.03;;;16.80;55.83
16355;BME280;8287;51.644;8.494;2023-06-14T04:02:04;100432.06;;;16.89;56.27
16355;BME280;8287;51.644;8.494;2023-06-14T04:04:31;100430.47;;;16.88;56.01
16355;BME280;8287;51.644;8.494;2023-06-14T04:06:58;100434.97;;;16.84;56.77
16355;BME280;8287;51.644;8.494;2023-06-14T04:09:25;100441.56;;;16.86;56.15
16355;BME280;8287;51.644;8.494;2023-06-14T04:11:52;100440.44;;;16.87;56.11
16355;BME280;8287;51.644;8.494;2023-06-14T04:14:19;100448.88;;;16.89;56.20
16355;BME280;8287;51.644;8.494;2023-06-14T04:16:47;100446.38;;;16.81;56.57
16355;BME280;8287;51.644;8.494;2023-06-14T04:19:14;100452.19;;;16.71;57.01
16355;BME280;8287;51.644;8.494;2023-06-14T04:21:41;100450.38;;;16.60;57.17
16355;BME280;8287;51.644;8.494;2023-06-14T04:24:08;100457.38;;;16.64;56.59
16355;BME280;8287;51.644;8.494;2023-06-14T04:26:38;100464.38;;;16.69;57.08
16355;BME280;8287;51.644;8.494;2023-06-14T04:29:04;100457.75;;;16.78;57.05
16355;BME280;8287;51.644;8.494;2023-06-14T04:31:32;100457.84;;;16.81;57.53
16355;BME280;8287;51.644;8.494;2023-06-14T04:34:00;100458.88;;;16.77;56.87
16355;BME280;8287;51.644;8.494;2023-06-14T04:36:30;100466.22;;;16.80;57.33
16355;BME280;8287;51.644;8.494;2023-06-14T04:39:00;100472.16;;;16.73;57.79
16355;BME280;8287;51.644;8.494;2023-06-14T04:41:28;100472.06;;;16.70;57.34
16355;BME280;8287;51.644;8.494;2023-06-14T04:43:56;100482.38;;;16.83;58.08
16355;BME280;8287;51.644;8.494;2023-06-14T04:46:24;100474.72;;;16.70;57.80
16355;BME280;8287;51.644;8.494;2023-06-14T04:48:54;100474.41;;;16.72;58.29
16355;BME280;8287;51.644;8.494;2023-06-14T04:51:22;100475.94;;;16.73;57.40
16355;BME280;8287;51.644;8.494;2023-06-14T04:53:55;100476.97;;;16.95;58.17
16355;BME280;8287;51.644;8.494;2023-06-14T04:56:22;100477.88;;;17.15;56.99
16355;BME280;8287;51.644;8.494;2023-06-14T04:58:50;100483.38;;;17.22;57.62
16355;BME280;8287;51.644;8.494;2023-06-14T05:01:17;100477.78;;;17.27;57.45
16355;BME280;8287;51.644;8.494;2023-06-14T05:03:43;100480.22;;;17.32;57.41
16355;BME280;8287;51.644;8.494;2023-06-14T05:06:10;100479.53;;;17.35;58.00
16355;BME280;8287;51.644;8.494;2023-06-14T05:08:38;100475.63;;;17.32;56.88
16355;BME280;8287;51.644;8.494;2023-06-14T05:11:05;100473.06;;;17.36;58.07
16355;BME280;8287;51.644;8.494;2023-06-14T05:13:31;100475.06;;;17.39;58.26
16355;BME280;8287;51.644;8.494;2023-06-14T05:15:59;100473.78;;;17.48;57.28
16355;BME280;8287;51.644;8.494;2023-06-14T05:18:26;100474.78;;;17.59;56.77
16355;BME280;8287;51.644;8.494;2023-06-14T05:20:53;100479.38;;;17.74;57.52
16355;BME280;8287;51.644;8.494;2023-06-14T05:23:19;100476.44;;;17.79;57.63
16355;BME280;8287;51.644;8.494;2023-06-14T05:25:47;100473.34;;;17.77;57.31
16355;BME280;8287;51.644;8.494;2023-06-14T05:28:14;100480.56;;;17.92;57.79
16355;BME280;8287;51.644;8.494;2023-06-14T05:30:41;100473.63;;;18.07;56.83
16355;BME280;8287;51.644;8.494;2023-06-14T05:33:08;100479.91;;;18.14;56.33
16355;BME280;8287;51.644;8.494;2023-06-14T05:35:34;100491.53;;;18.03;55.16
16355;BME280;8287;51.644;8.494;2023-06-14T05:38:01;100487.06;;;17.76;55.83
16355;BME280;8287;51.644;8.494;2023-06-14T05:40:28;100490.13;;;17.59;56.84
16355;BME280;8287;51.644;8.494;2023-06-14T05:42:56;100479.41;;;17.59;56.65
16355;BME280;8287;51.644;8.494;2023-06-14T05:45:22;100488.19;;;17.59;56.88
16355;BME280;8287;51.644;8.494;2023-06-14T05:47:49;100488.09;;;17.87;56.47
16355;BME280;8287;51.644;8.494;2023-06-14T05:50:16;100495.75;;;18.19;56.16
16355;BME280;8287;51.644;8.494;2023-06-14T05:52:43;100495.13;;;18.26;55.92
16355;BME280;8287;51.644;8.494;2023-06-14T05:55:09;100506.47;;;18.54;55.88
16355;BME280;8287;51.644;8.494;2023-06-14T05:57:37;100498.22;;;18.62;57.83
16355;BME280;8287;51.644;8.494;2023-06-14T06:00:06;100501.91;;;18.73;57.91
16355;BME280;8287;51.644;8.494;2023-06-14T06:02:39;100500.69;;;18.71;56.05
16355;BME280;8287;51.644;8.494;2023-06-14T06:05:06;100492.84;;;18.81;56.05
16355;BME280;8287;51.644;8.494;2023-06-14T06:07:33;100495.03;;;18.95;56.71
16355;BME280;8287;51.644;8.494;2023-06-14T06:10:00;100499.81;;;19.05;55.71
16355;BME280;8287;51.644;8.494;2023-06-14T06:12:27;100495.72;;;19.11;55.35
16355;BME280;8287;51.644;8.494;2023-06-14T06:14:53;100493.13;;;18.95;55.52
16355;BME280;8287;51.644;8.494;2023-06-14T06:17:21;100501.09;;;19.11;55.19
16355;BME280;8287;51.644;8.494;2023-06-14T06:19:48;100495.59;;;18.85;51.75
16355;BME280;8287;51.644;8.494;2023-06-14T06:22:15;100499.47;;;18.68;52.58
16355;BME280;8287;51.644;8.494;2023-06-14T06:24:42;100497.81;;;18.79;52.95
16355;BME280;8287;51.644;8.494;2023-06-14T06:27:08;100500.19;;;18.84;51.92
16355;BME280;8287;51.644;8.494;2023-06-14T06:29:35;100502.81;;;19.00;52.10
16355;BME280;8287;51.644;8.494;2023-06-14T06:32:02;100505.97;;;19.05;51.52
16355;BME280;8287;51.644;8.494;2023-06-14T06:34:30;100509.00;;;19.23;51.85
16355;BME280;8287;51.644;8.494;2023-06-14T06:36:57;100500.59;;;19.05;51.50
16355;BME280;8287;51.644;8.494;2023-06-14T06:39:23;100505.03;;;19.17;51.74
16355;BME280;8287;51.644;8.494;2023-06-14T06:41:50;100514.91;;;19.32;51.13
16355;BME280;8287;51.644;8.494;2023-06-14T06:44:17;100501.19;;;19.37;51.76
16355;BME280;8287;51.644;8.494;2023-06-14T06:46:43;100511.88;;;19.56;50.49
16355;BME280;8287;51.644;8.494;2023-06-14T06:49:10;100514.38;;;19.23;51.55
16355;BME280;8287;51.644;8.494;2023-06-14T06:51:41;100521.63;;;19.41;51.19
16355;BME280;8287;51.644;8.494;2023-06-14T06:54:08;100518.56;;;19.20;51.62
16355;BME280;8287;51.644;8.494;2023-06-14T06:56:35;100524.13;;;19.12;50.93
16355;BME280;8287;51.644;8.494;2023-06-14T06:59:01;100516.25;;;19.41;51.55
16355;BME280;8287;51.644;8.494;2023-06-14T07:01:28;100530.03;;;19.40;51.78
16355;BME280;8287;51.644;8.494;2023-06-14T07:03:55;100524.50;;;19.29;51.12
16355;BME280;8287;51.644;8.494;2023-06-14T07:06:21;100521.84;;;19.14;51.37
16355;BME280;8287;51.644;8.494;2023-06-14T07:08:53;100523.56;;;19.22;51.99
16355;BME280;8287;51.644;8.494;2023-06-14T07:11:20;100527.22;;;19.14;51.22
16355;BME280;8287;51.644;8.494;2023-06-14T07:13:46;100525.50;;;19.21;50.52
16355;BME280;8287;51.644;8.494;2023-06-14T07:16:13;100536.06;;;19.14;50.92
16355;BME280;8287;51.644;8.494;2023-06-14T07:18:40;100535.59;;;19.28;50.85
16355;BME280;8287;51.644;8.494;2023-06-14T07:21:07;100541.91;;;19.39;51.39
16355;BME280;8287;51.644;8.494;2023-06-14T07:23:33;100550.38;;;19.37;50.68
16355;BME280;8287;51.644;8.494;2023-06-14T07:26:02;100549.69;;;19.44;51.14
16355;BME280;8287;51.644;8.494;2023-06-14T07:28:28;100548.97;;;19.47;51.47
16355;BME280;8287;51.644;8.494;2023-06-14T07:30:55;100553.47;;;19.62;50.53
16355;BME280;8287;51.644;8.494;2023-06-14T07:33:21;100554.47;;;19.54;50.35
16355;BME280;8287;51.644;8.494;2023-06-14T07:35:48;100552.66;;;19.80;51.04
16355;BME280;8287;51.644;8.494;2023-06-14T07:38:15;100546.34;;;20.18;49.51
16355;BME280;8287;51.644;8.494;2023-06-14T07:40:42;100552.22;;;19.78;49.93
16355;BME280;8287;51.644;8.494;2023-06-14T07:43:10;100554.78;;;20.16;50.32
16355;BME280;8287;51.644;8.494;2023-06-14T07:45:37;100553.56;;;20.39;48.70
16355;BME280;8287;51.644;8.494;2023-06-14T07:48:04;100553.91;;;20.09;48.94
16355;BME280;8287;51.644;8.494;2023-06-14T07:50:30;100560.88;;;20.13;49.48
16355;BME280;8287;51.644;8.494;2023-06-14T07:52:57;100560.09;;;20.13;49.28
16355;BME280;8287;51.644;8.494;2023-06-14T07:55:23;100555.22;;;20.22;48.75
16355;BME280;8287;51.644;8.494;2023-06-14T07:57:50;100554.47;;;20.47;47.89
16355;BME280;8287;51.644;8.494;2023-06-14T08:00:20;100561.63;;;20.65;48.05
16355;BME280;8287;51.644;8.494;2023-06-14T08:02:46;100551.16;;;20.86;49.22
16355;BME280;8287;51.644;8.494;2023-06-14T08:05:13;100552.56;;;20.80;47.37
16355;BME280;8287;51.644;8.494;2023-06-14T08:07:40;100562.88;;;20.45;47.97
16355;BME280;8287;51.644;8.494;2023-06-14T08:10:07;100554.13;;;20.52;47.91
16355;BME280;8287;51.644;8.494;2023-06-14T08:12:34;100558.28;;;20.46;47.61
16355;BME280;8287;51.644;8.494;2023-06-14T08:15:01;100562.41;;;20.66;48.33
16355;BME280;8287;51.644;8.494;2023-06-14T08:17:28;100560.50;;;20.96;48.21
16355;BME280;8287;51.644;8.494;2023-06-14T08:19:55;100560.00;;;21.20;48.80
16355;BME280;8287;51.644;8.494;2023-06-14T08:22:22;100561.84;;;20.83;46.61
16355;BME280;8287;51.644;8.494;2023-06-14T08:24:49;100567.19;;;20.79;47.37
16355;BME280;8287;51.644;8.494;2023-06-14T08:27:16;100549.75;;;20.99;47.08
16355;BME280;8287;51.644;8.494;2023-06-14T08:29:43;100556.72;;;21.00;47.64
16355;BME280;8287;51.644;8.494;2023-06-14T08:32:09;100559.44;;;21.40;47.92
16355;BME280;8287;51.644;8.494;2023-06-14T08:34:37;100559.31;;;21.26;46.90
16355;BME280;8287;51.644;8.494;2023-06-14T08:37:04;100561.25;;;21.29;46.18
16355;BME280;8287;51.644;8.494;2023-06-14T08:39:31;100567.94;;;21.06;47.25
16355;BME280;8287;51.644;8.494;2023-06-14T08:42:01;100571.03;;;21.44;46.43
16355;BME280;8287;51.644;8.494;2023-06-14T08:44:28;100562.69;;;21.56;46.20
16355;BME280;8287;51.644;8.494;2023-06-14T08:46:55;100552.19;;;21.84;45.57
16355;BME280;8287;51.644;8.494;2023-06-14T08:49:24;100552.66;;;21.53;45.69
16355;BME280;8287;51.644;8.494;2023-06-14T08:51:57;100562.59;;;21.49;45.82
16355;BME280;8287;51.644;8.494;2023-06-14T08:54:25;100558.66;;;21.76;45.62
16355;BME280;8287;51.644;8.494;2023-06-14T08:56:52;100561.91;;;21.56;46.15
16355;BME280;8287;51.644;8.494;2023-06-14T08:59:23;100563.34;;;21.46;46.58
16355;BME280;8287;51.644;8.494;2023-06-14T09:01:51;100566.44;;;21.48;47.22
16355;BME280;8287;51.644;8.494;2023-06-14T09:04:19;100578.34;;;21.80;46.34
16355;BME280;8287;51.644;8.494;2023-06-14T09:06:46;100562.31;;;21.98;45.65
16355;BME280;8287;51.644;8.494;2023-06-14T09:09:20;100569.16;;;21.88;45.13
16355;BME280;8287;51.644;8.494;2023-06-14T09:11:49;100575.22;;;21.75;45.54
16355;BME280;8287;51.644;8.494;2023-06-14T09:14:15;100571.03;;;21.44;46.68
16355;BME280;8287;51.644;8.494;2023-06-14T09:16:42;100579.91;;;21.08;46.27
16355;BME280;8287;51.644;8.494;2023-06-14T09:19:08;100575.56;;;21.00;46.50
16355;BME280;8287;51.644;8.494;2023-06-14T09:21:40;100574.78;;;21.33;47.31
16355;BME280;8287;51.644;8.494;2023-06-14T09:24:13;100575.81;;;21.98;45.71
16355;BME280;8287;51.644;8.494;2023-06-14T09:26:41;100571.00;;;22.28;45.77
16355;BME280;8287;51.644;8.494;2023-06-14T09:29:09;100578.56;;;22.05;44.79
16355;BME280;8287;51.644;8.494;2023-06-14T09:31:36;100580.72;;;21.85;44.72
16355;BME280;8287;51.644;8.494;2023-06-14T09:34:03;100579.19;;;21.91;45.36
16355;BME280;8287;51.644;8.494;2023-06-14T09:36:31;100580.94;;;21.70;45.15
16355;BME280;8287;51.644;8.494;2023-06-14T09:38:59;100576.16;;;21.96;45.19
16355;BME280;8287;51.644;8.494;2023-06-14T09:41:31;100577.03;;;22.07;44.42
16355;BME280;8287;51.644;8.494;2023-06-14T09:44:01;100574.00;;;22.16;43.92
16355;BME280;8287;51.644;8.494;2023-06-14T09:46:29;100579.00;;;22.14;44.96
16355;BME280;8287;51.644;8.494;2023-06-14T09:48:57;100578.88;;;22.47;44.36
16355;BME280;8287;51.644;8.494;2023-06-14T09:51:24;100561.03;;;22.35;43.75
16355;BME280;8287;51.644;8.494;2023-06-14T09:53:51;100566.41;;;22.32;43.68
16355;BME280;8287;51.644;8.494;2023-06-14T09:56:23;100572.75;;;22.53;43.84
16355;BME280;8287;51.644;8.494;2023-06-14T09:58:55;100566.97;;;22.55;43.15
16355;BME280;8287;51.644;8.494;2023-06-14T10:01:24;100565.03;;;22.59;42.95
16355;BME280;8287;51.644;8.494;2023-06-14T10:03:55;100562.72;;;22.57;43.60
16355;BME280;8287;51.644;8.494;2023-06-14T10:06:23;100570.00;;;22.50;44.81
16355;BME280;8287;51.644;8.494;2023-06-14T10:08:52;100565.34;;;22.43;43.83
16355;BME280;8287;51.644;8.494;2023-06-14T10:11:22;100574.34;;;22.65;43.65
16355;BME280;8287;51.644;8.494;2023-06-14T10:13:49;100577.06;;;22.65;43.66
16355;BME280;8287;51.644;8.494;2023-06-14T10:16:20;100571.75;;;22.89;43.54
16355;BME280;8287;51.644;8.494;2023-06-14T10:18:55;100568.28;;;22.92;43.99
16355;BME280;8287;51.644;8.494;2023-06-14T10:21:32;100572.66;;;23.18;43.67
16355;BME280;8287;51.644;8.494;2023-06-14T10:24:04;100568.91;;;22.61;43.72
16355;BME280;8287;51.644;8.494;2023-06-14T10:26:31;100572.00;;;22.63;43.07
16355;BME280;8287;51.644;8.494;2023-06-14T10:28:59;100569.84;;;22.93;43.60
16355;BME280;8287;51.644;8.494;2023-06-14T10:31:43;100573.06;;;23.30;43.93
16355;BME280;8287;51.644;8.494;2023-06-14T10:34:11;100569.28;;;23.56;43.01
16355;BME280;8287;51.644;8.494;2023-06-14T10:36:40;100571.16;;;23.31;41.17
16355;BME280;8287;51.644;8.494;2023-06-14T10:39:14;100569.19;;;23.24;41.77
16355;BME280;8287;51.644;8.494;2023-06-14T10:41:50;100553.78;;;23.32;42.87
16355;BME280;8287;51.644;8.494;2023-06-14T10:44:41;100567.69;;;23.34;41.43
16355;BME280;8287;51.644;8.494;2023-06-14T10:47:10;100560.22;;;23.06;41.71
16355;BME280;8287;51.644;8.494;2023-06-14T10:49:43;100560.16;;;22.82;42.90
16355;BME280;8287;51.644;8.494;2023-06-14T10:52:11;100566.09;;;23.22;42.44
16355;BME280;8287;51.644;8.494;2023-06-14T10:55:10;100557.47;;;22.92;43.30
16355;BME280;8287;51.644;8.494;2023-06-14T10:57:39;100557.47;;;22.89;42.60
16355;BME280;8287;51.644;8.494;2023-06-14T11:00:07;100555.19;;;23.05;42.25
16355;BME280;8287;51.644;8.494;2023-06-14T11:02:51;100558.84;;;23.65;43.48
16355;BME280;8287;51.644;8.494;2023-06-14T11:05:25;100555.00;;;23.97;42.73
16355;BME280;8287;51.644;8.494;2023-06-14T11:08:15;100546.00;;;24.49;40.96
16355;BME280;8287;51.644;8.494;2023-06-14T11:10:45;100555.38;;;24.06;41.26
16355;BME280;8287;51.644;8.494;2023-06-14T11:13:12;100550.75;;;24.03;40.15
16355;BME280;8287;51.644;8.494;2023-06-14T11:15:43;100554.97;;;23.80;39.32
16355;BME280;8287;51.644;8.494;2023-06-14T11:18:14;100554.56;;;23.53;39.58
16355;BME280;8287;51.644;8.494;2023-06-14T11:20:46;100553.38;;;23.40;40.19
16355;BME280;8287;51.644;8.494;2023-06-14T11:23:12;100560.75;;;23.43;41.03
16355;BME280;8287;51.644;8.494;2023-06-14T11:25:40;100562.28;;;23.37;40.74
16355;BME280;8287;51.644;8.494;2023-06-14T11:28:06;100554.16;;;23.41;40.85
16355;BME280;8287;51.644;8.494;2023-06-14T11:30:33;100551.47;;;23.58;41.44
16355;BME280;8287;51.644;8.494;2023-06-14T11:33:00;100544.53;;;23.92;41.19
16355;BME280;8287;51.644;8.494;2023-06-14T11:35:27;100557.69;;;23.87;39.64
16355;BME280;8287;51.644;8.494;2023-06-14T11:37:56;100550.69;;;23.72;40.16
16355;BME280;8287;51.644;8.494;2023-06-14T11:40:23;100546.09;;;24.00;40.55
16355;BME280;8287;51.644;8.494;2023-06-14T11:42:58;100542.25;;;23.94;40.25
16355;BME280;8287;51.644;8.494;2023-06-14T11:45:25;100533.59;;;24.65;40.01
16355;BME280;8287;51.644;8.494;2023-06-14T11:47:53;100535.78;;;25.02;38.96
16355;BME280;8287;51.644;8.494;2023-06-14T11:50:20;100541.25;;;24.91;38.83
16355;BME280;8287;51.644;8.494;2023-06-14T11:52:52;100538.56;;;24.77;38.25
16355;BME280;8287;51.644;8.494;2023-06-14T11:55:20;100539.56;;;25.22;39.56
16355;BME280;8287;51.644;8.494;2023-06-14T11:57:47;100534.66;;;25.57;38.13
16355;BME280;8287;51.644;8.494;2023-06-14T12:00:15;100530.72;;;25.65;37.06
16355;BME280;8287;51.644;8.494;2023-06-14T12:02:42;100522.91;;;25.71;37.58
16355;BME280;8287;51.644;8.494;2023-06-14T12:05:09;100530.94;;;25.85;38.98
16355;BME280;8287;51.644;8.494;2023-06-14T12:07:36;100535.97;;;25.35;37.05
16355;BME280;8287;51.644;8.494;2023-06-14T12:10:06;100528.13;;;24.72;38.58
16355;BME280;8287;51.644;8.494;2023-06-14T12:12:37;100525.47;;;25.41;38.26
16355;BME280;8287;51.644;8.494;2023-06-14T12:15:05;100516.06;;;25.56;37.79
16355;BME280;8287;51.644;8.494;2023-06-14T12:17:33;100519.69;;;25.83;36.63
16355;BME280;8287;51.644;8.494;2023-06-14T12:20:05;100527.00;;;25.93;35.58
16355;BME280;8287;51.644;8.494;2023-06-14T12:22:36;100519.78;;;25.72;35.41
16355;BME280;8287;51.644;8.494;2023-06-14T12:25:03;100522.03;;;25.84;35.21
16355;BME280;8287;51.644;8.494;2023-06-14T12:27:29;100512.13;;;26.08;35.09
16355;BME280;8287;51.644;8.494;2023-06-14T12:30:01;100509.72;;;25.69;36.58
16355;BME280;8287;51.644;8.494;2023-06-14T12:32:28;100523.66;;;25.75;36.60
16355;BME280;8287;51.644;8.494;2023-06-14T12:34:55;100526.28;;;26.26;35.13
16355;BME280;8287;51.644;8.494;2023-06-14T12:37:22;100525.34;;;25.58;37.07
16355;BME280;8287;51.644;8.494;2023-06-14T12:39:49;100519.84;;;26.13;35.79
16355;BME280;8287;51.644;8.494;2023-06-14T12:42:16;100518.31;;;26.45;36.93
16355;BME280;8287;51.644;8.494;2023-06-14T12:44:46;100522.19;;;26.48;36.60
16355;BME280;8287;51.644;8.494;2023-06-14T12:47:22;100526.53;;;26.05;34.63
16355;BME280;8287;51.644;8.494;2023-06-14T12:49:48;100530.56;;;25.83;35.03
16355;BME280;8287;51.644;8.494;2023-06-14T12:52:15;100533.22;;;26.30;36.50
16355;BME280;8287;51.644;8.494;2023-06-14T12:54:42;100521.22;;;26.65;34.81
16355;BME280;8287;51.644;8.494;2023-06-14T12:57:08;100524.25;;;26.70;32.76
16355;BME280;8287;51.644;8.494;2023-06-14T12:59:35;100525.63;;;26.52;33.84
16355;BME280;8287;51.644;8.494;2023-06-14T13:02:15;100520.47;;;25.87;35.23
16355;BME280;8287;51.644;8.494;2023-06-14T13:04:43;100526.97;;;25.96;34.90